Terminal Aerodrome Forecast
Issued by NWS Upton, NY

Home | Current Version | Previous Version | Text Only | Print | Product List | Glossary On
Versions: 1 2 3 4 5 6 7 8 9 10 11 12 13 14 15 16 17 18 19 20 21 22 23 24 25 26 27 28 29 30 31 32
000
FTUS41 KOKX 021741
TAFJFK
TAF
KJFK 021741Z 0218/0324 03012KT 6SM -RA BKN007 OVC011
      TEMPO 0220/0224 3SM RA SCT007
     FM030300 04007KT 6SM BR SCT007 OVC012
      TEMPO 0303/0307 -RA BKN007
     FM030700 04007KT 6SM BR FEW007 OVC015
     FM031200 04010KT P6SM SCT015 OVC035
     FM031500 06010KT P6SM OVC050
     FM031800 10012KT P6SM BKN050=

USA.gov is the U.S. government's official web portal to all federal, state and local government web resources and services.